地図

経路データ

SID SEASON NUMBER BASIN SUBBASIN NAME ISO_TIME NATURE LAT LON WMO_WIND WMO_PRES WMO_AGENCY TRACK_TYPE DIST2LAND LANDFALL IFLAG USA_AGENCY USA_ATCF_ID USA_LAT USA_LON USA_RECORD USA_STATUS USA_WIND USA_PRES USA_SSHS USA_R34_NE USA_R34_SE USA_R34_SW USA_R34_NW USA_R50_NE USA_R50_SE USA_R50_SW USA_R50_NW USA_R64_NE USA_R64_SE USA_R64_SW USA_R64_NW USA_POCI USA_ROCI USA_RMW USA_EYE TOKYO_LAT TOKYO_LON TOKYO_GRADE TOKYO_WIND TOKYO_PRES TOKYO_R50_DIR TOKYO_R50_LONG TOKYO_R50_SHORT TOKYO_R30_DIR TOKYO_R30_LONG TOKYO_R30_SHORT TOKYO_LAND CMA_LAT CMA_LON CMA_CAT CMA_WIND CMA_PRES HKO_LAT HKO_LON HKO_CAT HKO_WIND HKO_PRES NEWDELHI_LAT NEWDELHI_LON NEWDELHI_GRADE NEWDELHI_WIND NEWDELHI_PRES NEWDELHI_CI NEWDELHI_DP NEWDELHI_POCI REUNION_LAT REUNION_LON REUNION_TYPE REUNION_WIND REUNION_PRES REUNION_TNUM REUNION_CI REUNION_RMW REUNION_R34_NE REUNION_R34_SE REUNION_R34_SW REUNION_R34_NW REUNION_R50_NE REUNION_R50_SE REUNION_R50_SW REUNION_R50_NW REUNION_R64_NE REUNION_R64_SE REUNION_R64_SW REUNION_R64_NW BOM_LAT BOM_LON BOM_TYPE BOM_WIND BOM_PRES BOM_TNUM BOM_CI BOM_RMW BOM_R34_NE BOM_R34_SE BOM_R34_SW BOM_R34_NW BOM_R50_NE BOM_R50_SE BOM_R50_SW BOM_R50_NW BOM_R64_NE BOM_R64_SE BOM_R64_SW BOM_R64_NW BOM_ROCI BOM_POCI BOM_EYE BOM_POS_METHOD BOM_PRES_METHOD NADI_LAT NADI_LON NADI_CAT NADI_WIND NADI_PRES WELLINGTON_LAT WELLINGTON_LON WELLINGTON_WIND WELLINGTON_PRES DS824_LAT DS824_LON DS824_STAGE DS824_WIND DS824_PRES TD9636_LAT TD9636_LON TD9636_STAGE TD9636_WIND TD9636_PRES TD9635_LAT TD9635_LON TD9635_WIND TD9635_PRES TD9635_ROCI NEUMANN_LAT NEUMANN_LON NEUMANN_CLASS NEUMANN_WIND NEUMANN_PRES MLC_LAT MLC_LON MLC_CLASS MLC_WIND MLC_PRES USA_GUST BOM_GUST BOM_GUST_PER REUNION_GUST REUNION_GUST_PER USA_SEAHGT USA_SEARAD_NE USA_SEARAD_SE USA_SEARAD_SW USA_SEARAD_NW STORM_SPEED STORM_DIR
2015280N13071 2015 90 NI AS NOT_NAMED 2015-10-07 00:00:00 TS 12.7000 71.3000 main 374 374 O_____________ jtwc_io IO032015 12.7000 71.3000 TD 25 1004 -1 1007 160 50 3 166
2015280N13071 2015 90 NI AS NOT_NAMED 2015-10-07 03:00:00 TS 12.5725 71.3375 main 376 368 P_____________ IO032015 12.5725 71.3375 TD 27 1002 -1 1007 160 50 2 153
2015280N13071 2015 90 NI AS NOT_NAMED 2015-10-07 06:00:00 TS 12.5000 71.4000 main 368 358 O_____________ jtwc_io IO032015 12.5000 71.4000 TD 30 1000 -1 1007 160 50 2 108
2015280N13071 2015 90 NI AS NOT_NAMED 2015-10-07 09:00:00 TS 12.5200 71.5000 main 358 345 P_____________ IO032015 12.5200 71.5000 TD 30 1000 -1 1007 160 50 2 63
2015280N13071 2015 90 NI AS NOT_NAMED 2015-10-07 12:00:00 TS 12.6000 71.6000 main 345 332 O_____________ jtwc_io IO032015 12.6000 71.6000 TD 30 1000 -1 1007 160 50 3 45
2015280N13071 2015 90 NI AS NOT_NAMED 2015-10-07 15:00:00 TS 12.7000 71.6800 main 332 329 P_____________ IO032015 12.7000 71.6800 TD 30 1000 -1 1008 155 37 2 27
2015280N13071 2015 90 NI AS NOT_NAMED 2015-10-07 18:00:00 TS 12.8000 71.7000 main 329 328 O_____________ jtwc_io IO032015 12.8000 71.7000 TD 30 1000 -1 1009 150 25 2 343
2015280N13071 2015 90 NI AS NOT_NAMED 2015-10-07 21:00:00 TS 12.8650 71.6225 main 338 338 P_____________ IO032015 12.8650 71.6225 TD 30 1000 -1 1009 150 25 2 297
2015280N13071 2015 90 NI AS NOT_NAMED 2015-10-08 00:00:00 TS 12.9000 71.5000 main 349 349 O_____________ jtwc_io IO032015 12.9000 71.5000 TD 30 1000 -1 1009 150 25 2 275
2015280N13071 2015 90 NI AS NOT_NAMED 2015-10-08 03:00:00 TS 12.8850 71.4000 main 360 360 P_____________ IO032015 12.8850 71.4000 TD 30 1000 -1 1009 160 25 2 270
2015280N13071 2015 90 NI AS NOT_NAMED 2015-10-08 06:00:00 TS 12.9000 71.3000 main 369 363 O_____________ jtwc_io IO032015 12.9000 71.3000 TD 30 1000 -1 1009 170 25 2 308
2015280N13071 2015 90 NI AS NOT_NAMED 2015-10-08 09:00:00 TS 13.0350 71.2000 main 372 366 P_____________ IO032015 13.0350 71.2000 TD 30 1000 -1 1009 170 25 4 327
2015280N13071 2015 90 NI AS NOT_NAMED 2015-10-08 12:00:00 TS 13.2000 71.1000 main 369 363 O_____________ jtwc_io IO032015 13.2000 71.1000 TD 30 1000 -1 1009 170 25 3 325
2015280N13071 2015 90 NI AS NOT_NAMED 2015-10-08 15:00:00 TS 13.3075 71.0000 main 372 372 P_____________ IO032015 13.3075 71.0000 TD 30 1000 -1 1008 170 25 3 316
2015280N13071 2015 90 NI AS NOT_NAMED 2015-10-08 18:00:00 TS 13.4000 70.9000 main 375 375 O_____________ jtwc_io IO032015 13.4000 70.9000 TD 30 1000 -1 1007 170 25 3 314
2015280N13071 2015 90 NI AS NOT_NAMED 2015-10-08 21:00:00 TS 13.4925 70.8000 main 379 379 P_____________ IO032015 13.4925 70.8000 TD 30 1000 -1 1006 175 25 4 316
2015280N13071 2015 90 NI AS NOT_NAMED 2015-10-09 00:00:00 TS 13.6800 70.6200 25 1004 newdelhi main 388 384 O___O_________ jtwc_io IO032015 13.6000 70.7000 TD 30 1000 -1 1006 180 25 14.0000 70.3000 D 25 1004 1.50000 3 4 319
2015280N13071 2015 90 NI AS NOT_NAMED 2015-10-09 03:00:00 TS 13.8233 70.5050 25 1004 newdelhi main 394 390 P___O_________ IO032015 13.7350 70.6075 TD 32 998 -1 1006 180 25 14.0000 70.3000 D 25 1004 1.50000 4 4 327
2015280N13071 2015 90 NI AS NOT_NAMED 2015-10-09 06:00:00 TS 13.9857 70.4143 25 1004 newdelhi main 396 392 O___O_________ jtwc_io IO032015 13.9000 70.5000 TS 35 996 0 1006 180 25 14.1000 70.3000 D 25 1004 1.50000 4 4 329
2015280N13071 2015 90 NI AS NOT_NAMED 2015-10-09 09:00:00 TS 14.1394 70.3157 main 402 397 P___P_________ IO032015 14.0925 70.3575 TS 32 998 -1 1006 180 25 14.1864 70.2738 D 25 1003 4 4 326
2015280N13071 2015 90 NI AS NOT_NAMED 2015-10-09 12:00:00 TS 14.3000 70.2000 25 1002 newdelhi main 403 399 O___O_________ jtwc_io IO032015 14.3000 70.2000 TD 30 1000 -1 1006 180 25 14.3000 70.2000 D 25 1002 1.50000 4 4 325
2015280N13071 2015 90 NI AS NOT_NAMED 2015-10-09 15:00:00 TS 14.5038 70.0575 main 405 405 P___P_________ IO032015 14.5150 70.0500 TD 30 1000 -1 1006 180 25 14.4925 70.0650 D 27 1001 4 5 324
2015280N13071 2015 90 NI AS NOT_NAMED 2015-10-09 18:00:00 TS 14.7000 69.9000 30 1001 newdelhi main 416 416 O___O_________ jtwc_io IO032015 14.7000 69.9000 TD 30 1000 -1 1006 180 25 14.7000 69.9000 DD 30 1001 2.00000 5 5 318
2015280N13071 2015 90 NI AS NOT_NAMED 2015-10-09 21:00:00 TS 14.8410 69.7411 main 429 425 P___P_________ IO032015 14.8150 69.7425 TD 30 1000 -1 1006 180 25 14.8670 69.7398 DD 30 1001 5 4 311
2015280N13071 2015 90 NI AS NOT_NAMED 2015-10-10 00:00:00 TS 14.9500 69.6000 30 1001 newdelhi main 430 430 O___O_________ jtwc_io IO032015 14.9000 69.6000 TD 30 1000 -1 1006 180 25 15.0000 69.6000 DD 30 1001 2.00000 5 3 310
2015280N13071 2015 90 NI AS NOT_NAMED 2015-10-10 03:00:00 TS 15.0500 69.4850 30 1001 newdelhi main 435 435 P___O_________ IO032015 15.0000 69.4700 TD 30 1000 -1 1008 190 25 15.1000 69.5000 DD 30 1001 2.00000 5 2 308
2015280N13071 2015 90 NI AS NOT_NAMED 2015-10-10 06:00:00 TS 15.1000 69.4000 30 1000 newdelhi main 445 441 O___O_________ jtwc_io IO032015 15.1000 69.4000 TD 30 1000 -1 1010 200 25 15.1000 69.4000 DD 30 1000 2.00000 6 2 321
2015280N13071 2015 90 NI AS NOT_NAMED 2015-10-10 09:00:00 TS 15.1699 69.3836 main 441 441 P___P_________ IO032015 15.2000 69.4275 TD 27 1002 -1 1009 195 25 15.1398 69.3398 DD 30 1000 6 2 0
2015280N13071 2015 90 NI AS NOT_NAMED 2015-10-10 12:00:00 TS 15.2500 69.4000 30 1000 newdelhi main 438 438 O___O_________ jtwc_io IO032015 15.3000 69.5000 TD 25 1004 -1 1008 190 25 15.2000 69.3000 DD 30 1000 2.00000 6 2 9
2015280N13071 2015 90 NI AS NOT_NAMED 2015-10-10 15:00:00 TS 15.3213 69.4037 main 438 434 P___P_________ IO032015 15.4000 69.5650 TD 25 1004 -1 1007 175 35 15.2425 69.2425 DD 30 1000 6 2 0
2015280N13071 2015 90 NI AS NOT_NAMED 2015-10-10 18:00:00 TS 15.4000 69.4000 30 1000 newdelhi main 434 431 O___O_________ jtwc_io IO032015 15.5000 69.6000 TD 25 1004 -1 1007 160 45 15.3000 69.2000 DD 30 1000 2.00000 6 2 352
2015280N13071 2015 90 NI AS NOT_NAMED 2015-10-10 21:00:00 TS 15.4966 69.3828 main 431 428 P___P_________ IO032015 15.6000 69.5725 TD 25 1004 -1 1007 160 45 15.3932 69.1932 DD 30 1000 5 2 340
2015280N13071 2015 90 NI AS NOT_NAMED 2015-10-11 00:00:00 TS 15.5857 69.3286 30 1001 newdelhi main 439 436 O___O_________ jtwc_io IO032015 15.7000 69.5000 TD 25 1004 -1 1007 160 45 15.5000 69.2000 DD 30 1001 2.00000 5 2 327
2015280N13071 2015 90 NI AS NOT_NAMED 2015-10-11 03:00:00 TS 15.6667 69.2683 25 1003 newdelhi main 436 436 P___O_________ IO032015 15.8000 69.4050 TD 22 1005 -1 1008 162 45 15.6000 69.2000 D 25 1003 1.50000 4 2 326
2015280N13071 2015 90 NI AS NOT_NAMED 2015-10-11 06:00:00 NR 15.7400 69.2200 25 1003 newdelhi main 447 444 O___O_________ jtwc_io IO032015 15.9000 69.3000 DB 20 1007 -3 1010 165 45 15.7000 69.2000 D 25 1003 1.50000 4 2 332
2015280N13071 2015 90 NI AS NOT_NAMED 2015-10-11 09:00:00 NR 15.8068 69.2000 main 444 443 ____P_________ IO032015 DB -3 15.8068 69.2000 D 25 1003 3 2 0
2015280N13071 2015 90 NI AS NOT_NAMED 2015-10-11 12:00:00 NR 15.9000 69.2000 25 1004 newdelhi main 443 441 ____O_________ 15.9000 69.2000 D 25 1004 1.50000 3 2 10
2015280N13071 2015 90 NI AS NOT_NAMED 2015-10-11 15:00:00 NR 15.9575 69.2150 main 441 441 ____P_________ 15.9575 69.2150 D 25 1004 3 1 0
2015280N13071 2015 90 NI AS NOT_NAMED 2015-10-11 18:00:00 NR 16.0000 69.2000 25 1004 newdelhi main 441 441 ____O_________ 16.0000 69.2000 D 25 1004 1.50000 3 1 316
2015280N13071 2015 90 NI AS NOT_NAMED 2015-10-11 21:00:00 NR 16.0475 69.1200 main 451 450 ____P_________ 16.0475 69.1200 D 22 1004 3 2 297
2015280N13071 2015 90 NI AS NOT_NAMED 2015-10-12 00:00:00 NR 16.1000 69.0000 20 1004 newdelhi main 461 ____O_________ 16.1000 69.0000 D 20 1004 1.50000 3 3 295

IBTrACS Databaseについて

本データベースは、米国NOAAが公開する1842年以降の世界の熱帯低気圧のベストトラックデータアーカイブInternational Best Track Archive for Climate Stewardship (IBTrACS)を、ウェブで閲覧しやすい形式に変換したものです。

最終更新日:2021-12-01